»·PEaware :: N4657 KSAN-KSNA

N4657 :: KSAN-KSNA

FLIGHT INFORMATION

Flight Status: Arrived
Operator: Privately registered:
United States
More flights under this callsign
Pilot: Spencer P. (16713)
Aircraft: BEECH AIRCRAFT SUPER KING AIR COMMUTER
(BE20)
More flights by this aircraft type
Origin: KSAN San Diego Intl-Lindbergh
United States
Destination: KSNA John Wayne-Orange Co
United States
More flights between these airports :: More routes between these airports
Route: +PEBLE6 SLI
File this flight plan on PilotEdge
Remarks:
Altitude:
(Current/Filed)
8,000ft
Speed:
(Current/Filed)
220kts
Departed: 24-Nov-17 05:34 PM
Arrived: 24-Nov-17 06:15 PM
Distance/Time
Traveled:
66nm/0:41
Distance/Time
To Go:
Arrived

Flight Plot

Page will automatically refresh every two minutes.


Map Options




Map Legend


Flown Route
Filed Route
Departure Airport
Arrival Airport
Navaid (VOR, NDB)
Fix

Horizontal Profiles

Position Reports

Time Latitude Longitude Heading Altitude Ground
Speed
24-Nov-17 17:17 32.732412 -117.176643 194 22ft 0kts
24-Nov-17 17:18 32.732412 -117.176643 194 22ft 0kts
24-Nov-17 17:19 32.732412 -117.176643 194 22ft 0kts
24-Nov-17 17:20 32.732412 -117.176643 194 22ft 0kts
24-Nov-17 17:21 32.732412 -117.176643 194 22ft 0kts
24-Nov-17 17:22 32.732412 -117.176643 194 22ft 0kts
24-Nov-17 17:23 32.732412 -117.176643 194 22ft 0kts
24-Nov-17 17:24 32.732412 -117.176643 194 22ft 0kts
24-Nov-17 17:25 32.732412 -117.176643 194 22ft 0kts
24-Nov-17 17:26 32.732412 -117.176643 194 22ft 0kts
24-Nov-17 17:27 32.732412 -117.176643 194 22ft 0kts
24-Nov-17 17:28 32.732412 -117.176643 194 22ft 0kts
24-Nov-17 17:29 32.732412 -117.176643 194 22ft 0kts
24-Nov-17 17:30 32.732412 -117.176643 194 22ft 0kts
24-Nov-17 17:31 32.732412 -117.176643 194 22ft 0kts
24-Nov-17 17:32 32.732412 -117.176643 194 22ft 0kts
24-Nov-17 17:33 32.732412 -117.176643 194 22ft 0kts
24-Nov-17 17:34 32.732412 -117.176643 194 22ft 0kts
24-Nov-17 17:35 32.732412 -117.176643 194 22ft 0kts
24-Nov-17 17:36 32.732412 -117.176643 194 22ft 0kts
24-Nov-17 17:37 32.731291 -117.176203 134 20ft 11kts
24-Nov-17 17:38 32.730988 -117.175545 136 21ft 0kts
24-Nov-17 17:39 32.731982 -117.183242 289 113ft 128kts
24-Nov-17 17:40 32.751579 -117.212212 311 1248ft 212kts
24-Nov-17 17:41 32.786964 -117.267305 306 2798ft 222kts
24-Nov-17 17:42 32.812510 -117.310564 306 3959ft 222kts
24-Nov-17 17:43 32.845228 -117.366559 307 5750ft 242kts
24-Nov-17 17:44 32.878958 -117.423789 314 7458ft 254kts
24-Nov-17 17:45 32.937802 -117.453482 325 7939ft 273kts
24-Nov-17 17:46 32.980018 -117.513010 310 7971ft 264kts
24-Nov-17 17:47 33.018385 -117.571262 310 7972ft 262kts
24-Nov-17 17:48 33.053514 -117.624608 310 7972ft 261kts
24-Nov-17 17:49 33.091242 -117.681885 309 7970ft 261kts
24-Nov-17 17:50 33.128566 -117.739108 309 7970ft 261kts
24-Nov-17 17:51 33.166647 -117.797692 309 7970ft 261kts
24-Nov-17 17:52 33.213853 -117.841960 342 7975ft 255kts
24-Nov-17 17:53 33.271292 -117.863620 345 7970ft 255kts
24-Nov-17 17:54 33.331344 -117.885355 345 7970ft 255kts
24-Nov-17 17:55 33.385938 -117.905191 345 7902ft 238kts
24-Nov-17 17:56 33.432018 -117.921967 346 7083ft 204kts
24-Nov-17 17:57 33.471067 -117.936124 346 6287ft 183kts
24-Nov-17 17:58 33.506437 -117.948927 345 5521ft 172kts
24-Nov-17 17:59 33.543246 -117.962237 344 4737ft 185kts
24-Nov-17 18:00 33.585846 -117.977742 344 4909ft 207kts
24-Nov-17 18:01 33.629059 -117.993573 344 4978ft 212kts
24-Nov-17 18:02 33.666884 -118.014763 343 4954ft 213kts
24-Nov-17 18:03 33.701715 -118.001551 26 4976ft 201kts
24-Nov-17 18:04 33.729482 -117.984484 27 4773ft 198kts
24-Nov-17 18:05 33.756210 -117.967803 27 4231ft 200kts
24-Nov-17 18:06 33.785327 -117.949327 27 4024ft 185kts
24-Nov-17 18:07 33.811838 -117.931130 41 4021ft 172kts
24-Nov-17 18:08 33.833858 -117.903757 45 4042ft 182kts
24-Nov-17 18:09 33.859088 -117.871948 45 3504ft 224kts
24-Nov-17 18:10 33.888638 -117.834677 45 3043ft 229kts
24-Nov-17 18:11 33.886306 -117.790784 123 3034ft 205kts
24-Nov-17 18:12 33.860494 -117.759619 174 3030ft 190kts
24-Nov-17 18:13 33.828084 -117.774137 210 3028ft 182kts
24-Nov-17 18:14 33.799915 -117.794900 210 2704ft 169kts
24-Nov-17 18:15 33.773873 -117.811201 208 2116ft 165kts
24-Nov-17 18:16 33.748562 -117.826302 207 1554ft 164kts
24-Nov-17 18:17 33.725971 -117.839659 208 1077ft 142kts
24-Nov-17 18:18 33.702556 -117.851469 206 579ft 144kts
24-Nov-17 18:19 33.681653 -117.865021 211 96ft 129kts
24-Nov-17 18:20 33.676046 -117.869984 258 60ft 9kts
24-Nov-17 18:21 33.676243 -117.870675 205 60ft 0kts
24-Nov-17 18:22 33.676243 -117.870675 205 60ft 0kts

Navigation Log

Ident Type
1. KSAN Airport
2. MELDY Fix
3. PEBLE Fix
4. SLI Navaid
5. KSNA Airport